createdAt,value
2023-12-05T00:00:29.724Z,-9.10
2023-12-05T00:02:56.327Z,-9.11
2023-12-05T00:05:23.002Z,-9.13
2023-12-05T00:07:49.799Z,-9.14
2023-12-05T00:10:16.521Z,-9.14
2023-12-05T00:12:43.523Z,-9.13
2023-12-05T00:15:10.233Z,-9.14
2023-12-05T00:17:36.934Z,-9.15
2023-12-05T00:20:04.422Z,-9.16
2023-12-05T00:22:31.161Z,-9.17
2023-12-05T00:24:58.049Z,-9.17
2023-12-05T00:27:24.724Z,-9.20
2023-12-05T00:29:51.330Z,-9.20
2023-12-05T00:32:18.004Z,-9.21
2023-12-05T00:34:47.687Z,-9.24
2023-12-05T00:37:14.455Z,-9.22
2023-12-05T00:39:41.351Z,-9.24
2023-12-05T00:42:08.913Z,-9.27
2023-12-05T00:44:35.547Z,-9.31
2023-12-05T00:47:04.693Z,-9.34
2023-12-05T00:49:31.508Z,-9.39
2023-12-05T00:51:58.189Z,-9.45
2023-12-05T00:54:25.031Z,-9.49
2023-12-05T00:56:51.629Z,-9.52
2023-12-05T00:59:18.401Z,-9.55
2023-12-05T01:01:45.112Z,-9.58
2023-12-05T01:04:11.885Z,-9.62
2023-12-05T01:06:38.635Z,-9.65
2023-12-05T01:09:07.722Z,-9.65
2023-12-05T01:11:34.499Z,-9.67
2023-12-05T01:14:01.127Z,-9.68
2023-12-05T01:16:27.759Z,-9.73
2023-12-05T01:18:54.646Z,-9.73
2023-12-05T01:21:21.863Z,-9.76
2023-12-05T01:23:48.468Z,-9.80
2023-12-05T01:26:15.285Z,-9.83
2023-12-05T01:28:41.880Z,-9.85
2023-12-05T01:31:08.609Z,-9.88
2023-12-05T01:33:35.314Z,-9.93
2023-12-05T01:36:01.953Z,-9.96
2023-12-05T01:38:28.549Z,-10.00
2023-12-05T01:40:56.025Z,-10.02
2023-12-05T01:43:22.954Z,-10.03
2023-12-05T01:45:49.758Z,-10.04
2023-12-05T01:48:17.276Z,-10.07
2023-12-05T01:50:44.765Z,-10.11
2023-12-05T01:53:13.554Z,-10.09
2023-12-05T01:55:40.248Z,-10.10
2023-12-05T01:58:09.115Z,-10.12
2023-12-05T02:00:39.172Z,-10.15
2023-12-05T02:03:05.904Z,-10.18
2023-12-05T02:05:33.452Z,-10.21
2023-12-05T02:08:00.734Z,-10.23
2023-12-05T02:10:27.333Z,-10.24
2023-12-05T02:12:53.920Z,-10.26
2023-12-05T02:15:20.960Z,-10.28
2023-12-05T02:18:14.007Z,-10.32
2023-12-05T02:20:56.839Z,-10.38
2023-12-05T02:23:51.763Z,-10.44
2023-12-05T02:26:36.432Z,-10.48
2023-12-05T02:29:03.863Z,-10.52
2023-12-05T02:31:30.445Z,-10.56
2023-12-05T02:33:57.159Z,-10.57
2023-12-05T02:36:34.311Z,-10.62
2023-12-05T02:39:15.630Z,-10.69
2023-12-05T02:41:46.606Z,-10.71
2023-12-05T02:44:16.860Z,-10.75
2023-12-05T02:46:45.252Z,-10.79
2023-12-05T02:49:12.930Z,-10.81
2023-12-05T02:51:41.124Z,-10.81
2023-12-05T02:54:08.166Z,-10.83
2023-12-05T02:56:36.664Z,-10.85
2023-12-05T02:59:04.256Z,-10.90
2023-12-05T03:01:31.404Z,-10.93
2023-12-05T03:03:58.129Z,-10.95
2023-12-05T03:06:25.592Z,-11.00
2023-12-05T03:08:52.285Z,-11.04
2023-12-05T03:11:18.848Z,-11.05
2023-12-05T03:13:45.437Z,-11.10
2023-12-05T03:16:12.072Z,-11.12
2023-12-05T03:18:38.875Z,-11.16
2023-12-05T03:21:06.390Z,-11.21
2023-12-05T03:23:33.008Z,-11.25
2023-12-05T03:25:59.884Z,-11.28
2023-12-05T03:28:26.484Z,-11.31
2023-12-05T03:30:53.354Z,-11.34
2023-12-05T03:33:20.070Z,-11.38
2023-12-05T03:35:46.810Z,-11.41
2023-12-05T03:38:13.425Z,-11.45
2023-12-05T03:40:40.024Z,-11.47
2023-12-05T03:43:06.780Z,-11.50
2023-12-05T03:45:33.433Z,-11.54
2023-12-05T03:48:00.250Z,-11.57
2023-12-05T03:50:26.884Z,-11.60
2023-12-05T03:52:53.511Z,-11.67
2023-12-05T03:55:20.125Z,-11.70
2023-12-05T03:57:46.774Z,-11.73
2023-12-05T04:00:13.904Z,-11.77
2023-12-05T04:02:42.933Z,-11.81
2023-12-05T04:05:10.748Z,-11.83
2023-12-05T04:07:37.571Z,-11.86
2023-12-05T04:10:04.718Z,-11.91
2023-12-05T04:12:31.381Z,-11.94
2023-12-05T04:14:58.123Z,-11.98
2023-12-05T04:17:24.722Z,-11.97
2023-12-05T04:19:52.273Z,-11.99
2023-12-05T04:22:19.756Z,-12.01
2023-12-05T04:24:46.402Z,-12.02
2023-12-05T04:27:13.195Z,-12.03
2023-12-05T04:29:39.821Z,-12.06
2023-12-05T04:32:07.812Z,-12.01
2023-12-05T04:34:35.801Z,-11.92
2023-12-05T04:37:02.471Z,-11.90
2023-12-05T04:39:29.114Z,-11.94
2023-12-05T04:41:56.165Z,-11.96
2023-12-05T04:44:23.009Z,-12.02
2023-12-05T04:46:49.668Z,-12.06
2023-12-05T04:49:16.375Z,-12.10
2023-12-05T04:51:44.340Z,-12.13
2023-12-05T04:54:11.868Z,-12.19
2023-12-05T04:56:38.481Z,-12.25
2023-12-05T04:59:05.259Z,-12.27
2023-12-05T05:01:32.006Z,-12.34
2023-12-05T05:04:02.463Z,-12.38
2023-12-05T05:06:31.867Z,-12.43
2023-12-05T05:08:58.730Z,-12.47
2023-12-05T05:11:25.331Z,-12.52
2023-12-05T05:13:57.981Z,-12.53
2023-12-05T05:16:26.977Z,-12.55
2023-12-05T05:18:54.229Z,-12.59
2023-12-05T05:21:21.094Z,-12.63
2023-12-05T05:23:47.812Z,-12.66
2023-12-05T05:26:15.619Z,-12.69
2023-12-05T05:28:42.552Z,-12.71
2023-12-05T05:31:09.225Z,-12.74
2023-12-05T05:33:36.013Z,-12.78
2023-12-05T05:36:02.850Z,-12.79
2023-12-05T05:38:29.451Z,-12.80
2023-12-05T05:41:07.652Z,-12.81
2023-12-05T05:43:34.789Z,-12.85
2023-12-05T05:46:01.983Z,-12.91
2023-12-05T05:48:29.163Z,-12.93
2023-12-05T05:50:56.390Z,-12.96
2023-12-05T05:53:23.097Z,-12.96
2023-12-05T05:55:49.974Z,-12.99
2023-12-05T05:58:16.572Z,-13.00
2023-12-05T06:00:43.270Z,-13.01
2023-12-05T06:03:10.207Z,-13.06
2023-12-05T06:05:37.294Z,-13.07
2023-12-05T06:08:04.363Z,-13.09
2023-12-05T06:10:30.985Z,-13.11
2023-12-05T06:12:57.757Z,-13.13
2023-12-05T06:15:24.489Z,-13.19
2023-12-05T06:17:51.264Z,-13.18
2023-12-05T06:20:18.363Z,-13.19
2023-12-05T06:22:45.028Z,-13.23
2023-12-05T06:25:11.729Z,-13.23
2023-12-05T06:27:38.447Z,-13.24
2023-12-05T06:30:13.285Z,-13.27
2023-12-05T06:32:47.811Z,-13.31
2023-12-05T06:35:14.502Z,-13.31
2023-12-05T06:37:41.248Z,-13.33
2023-12-05T06:40:08.510Z,-13.33
2023-12-05T06:42:35.859Z,-13.32
2023-12-05T06:45:03.969Z,-13.34
2023-12-05T06:47:32.114Z,-13.35
2023-12-05T06:50:02.895Z,-13.39
2023-12-05T06:52:29.633Z,-13.42
2023-12-05T06:54:56.549Z,-13.44
2023-12-05T06:57:23.929Z,-13.46
2023-12-05T06:59:51.141Z,-13.49
2023-12-05T07:02:18.358Z,-13.49
2023-12-05T07:04:45.312Z,-13.50
2023-12-05T07:07:12.216Z,-13.50
2023-12-05T07:09:38.903Z,-13.52
2023-12-05T07:12:06.425Z,-13.53
2023-12-05T07:14:36.534Z,-13.55
2023-12-05T07:17:03.748Z,-13.57
2023-12-05T07:19:30.568Z,-13.58
2023-12-05T07:21:57.273Z,-13.58
2023-12-05T07:24:24.133Z,-13.60
2023-12-05T07:26:50.981Z,-13.59
2023-12-05T07:29:17.733Z,-13.59
2023-12-05T07:31:44.352Z,-13.58
2023-12-05T07:34:11.110Z,-13.58
2023-12-05T07:36:42.539Z,-13.58
2023-12-05T07:39:14.034Z,-13.58
2023-12-05T07:41:41.621Z,-13.58
2023-12-05T07:44:08.433Z,-13.59
2023-12-05T07:46:35.352Z,-13.57
2023-12-05T07:49:03.981Z,-13.57
2023-12-05T07:51:31.125Z,-13.58
2023-12-05T07:53:58.078Z,-13.60
2023-12-05T07:56:26.127Z,-13.62
2023-12-05T07:58:52.864Z,-13.60
2023-12-05T08:01:19.563Z,-13.63
2023-12-05T08:03:46.394Z,-13.61
2023-12-05T08:06:13.567Z,-13.63
2023-12-05T08:08:40.324Z,-13.65
2023-12-05T08:11:07.484Z,-13.67
2023-12-05T08:13:34.108Z,-13.70
2023-12-05T08:16:00.766Z,-13.73
2023-12-05T08:18:27.844Z,-13.71
2023-12-05T08:20:54.646Z,-13.71
2023-12-05T08:23:22.304Z,-13.69
2023-12-05T08:25:48.981Z,-13.69
2023-12-05T08:28:15.631Z,-13.68
2023-12-05T08:30:42.813Z,-13.69
2023-12-05T08:33:10.501Z,-13.69
2023-12-05T08:35:37.361Z,-13.69
2023-12-05T08:38:04.386Z,-13.67
2023-12-05T08:40:30.990Z,-13.68
2023-12-05T08:42:57.779Z,-13.66
2023-12-05T08:45:25.486Z,-13.64
2023-12-05T08:47:55.508Z,-13.64
2023-12-05T08:50:22.702Z,-13.63
2023-12-05T08:52:49.633Z,-13.65
2023-12-05T08:55:16.499Z,-13.67
2023-12-05T08:57:43.474Z,-13.69
2023-12-05T09:00:10.693Z,-13.68
2023-12-05T09:02:37.566Z,-13.68
2023-12-05T09:05:05.121Z,-13.67
2023-12-05T09:07:32.644Z,-13.69
2023-12-05T09:09:59.550Z,-13.67
2023-12-05T09:12:26.390Z,-13.65
2023-12-05T09:14:53.123Z,-13.64
2023-12-05T09:17:20.054Z,-13.65
2023-12-05T09:19:46.888Z,-13.67
2023-12-05T09:22:13.671Z,-13.64
2023-12-05T09:24:40.356Z,-13.64
2023-12-05T09:27:07.218Z,-13.64
2023-12-05T09:29:33.915Z,-13.58
2023-12-05T09:32:00.561Z,-13.58
2023-12-05T09:34:27.298Z,-13.53
2023-12-05T09:36:54.062Z,-13.49
2023-12-05T09:39:21.067Z,-13.45
2023-12-05T09:41:51.972Z,-13.41
2023-12-05T09:44:25.039Z,-13.41
2023-12-05T09:46:57.600Z,-13.40
2023-12-05T09:49:28.340Z,-13.40
2023-12-05T09:51:55.483Z,-13.41
2023-12-05T09:54:25.301Z,-13.43
2023-12-05T09:56:55.076Z,-13.41
2023-12-05T09:59:24.151Z,-13.38
2023-12-05T10:01:56.734Z,-13.34
2023-12-05T10:04:23.737Z,-13.32
2023-12-05T10:06:52.742Z,-13.26
2023-12-05T10:09:22.680Z,-13.21
2023-12-05T10:11:50.831Z,-13.17
2023-12-05T10:14:17.645Z,-13.15
2023-12-05T10:16:45.724Z,-13.13
2023-12-05T10:19:13.895Z,-13.09
2023-12-05T10:21:40.702Z,-13.04
2023-12-05T10:24:07.398Z,-12.99
2023-12-05T10:26:45.075Z,-12.98
2023-12-05T10:29:11.828Z,-12.95
2023-12-05T10:31:38.738Z,-12.91
2023-12-05T10:34:08.847Z,-12.90
2023-12-05T10:36:39.076Z,-12.85
2023-12-05T10:39:08.337Z,-12.84
2023-12-05T10:41:34.990Z,-12.83
2023-12-05T10:44:04.049Z,-12.80
2023-12-05T10:46:30.908Z,-12.76
2023-12-05T10:48:57.671Z,-12.76
2023-12-05T10:51:28.656Z,-12.73
2023-12-05T10:53:56.997Z,-12.73
2023-12-05T10:56:25.040Z,-12.71
2023-12-05T10:58:54.261Z,-12.66
2023-12-05T11:01:23.157Z,-12.61
2023-12-05T11:03:51.725Z,-12.59
2023-12-05T11:06:18.836Z,-12.55
2023-12-05T11:08:46.063Z,-12.52
2023-12-05T11:11:14.482Z,-12.50
2023-12-05T11:13:42.757Z,-12.45
2023-12-05T11:16:36.507Z,-12.40
2023-12-05T11:19:38.310Z,-12.43
2023-12-05T11:22:24.048Z,-12.43
2023-12-05T11:25:32.537Z,-12.41
2023-12-05T11:28:20.709Z,-12.37
2023-12-05T11:30:59.634Z,-12.35
2023-12-05T11:34:16.946Z,-12.32
2023-12-05T11:37:02.048Z,-12.28
2023-12-05T11:39:30.666Z,-12.29
2023-12-05T11:42:15.352Z,-12.27
2023-12-05T11:44:44.591Z,-12.27
2023-12-05T11:47:38.421Z,-12.26
2023-12-05T11:50:06.457Z,-12.28
2023-12-05T11:52:40.754Z,-12.26
2023-12-05T11:55:10.170Z,-12.26
2023-12-05T11:57:36.997Z,-12.24
2023-12-05T12:00:04.982Z,-12.22
2023-12-05T12:02:31.541Z,-12.23
2023-12-05T12:05:10.655Z,-12.22
2023-12-05T12:07:49.420Z,-12.20
2023-12-05T12:10:17.654Z,-12.21
2023-12-05T12:12:46.201Z,-12.23
2023-12-05T12:15:17.147Z,-12.21
2023-12-05T12:17:45.402Z,-12.19
2023-12-05T12:20:16.683Z,-12.14
2023-12-05T12:22:44.825Z,-12.13
2023-12-05T12:25:15.401Z,-12.10
2023-12-05T12:27:42.966Z,-12.06
2023-12-05T12:30:14.884Z,-12.02
2023-12-05T12:32:57.125Z,-12.03
2023-12-05T12:35:24.684Z,-12.02
2023-12-05T12:37:53.399Z,-12.06
2023-12-05T12:40:20.697Z,-12.04
2023-12-05T12:42:51.263Z,-12.03
2023-12-05T12:45:18.070Z,-12.01
2023-12-05T12:47:44.835Z,-12.01
2023-12-05T12:50:12.959Z,-12.00
2023-12-05T12:52:39.654Z,-11.99
2023-12-05T12:55:08.080Z,-11.99
2023-12-05T12:57:37.945Z,-11.96
2023-12-05T13:00:30.765Z,-11.96
2023-12-05T13:02:59.566Z,-11.97
2023-12-05T13:05:33.390Z,-11.97
2023-12-05T13:08:01.222Z,-11.99
2023-12-05T13:10:29.300Z,-12.00
2023-12-05T13:12:56.263Z,-12.01
2023-12-05T13:15:30.356Z,-12.02
2023-12-05T13:18:05.457Z,-12.04
2023-12-05T13:20:33.091Z,-12.05
2023-12-05T13:23:01.567Z,-12.09
2023-12-05T13:25:35.627Z,-12.13
2023-12-05T13:28:10.285Z,-12.14
2023-12-05T13:30:37.132Z,-12.15
2023-12-05T13:33:04.968Z,-12.17
2023-12-05T13:35:31.769Z,-12.18
2023-12-05T13:37:58.436Z,-12.20
2023-12-05T13:40:25.104Z,-12.19
2023-12-05T13:42:52.239Z,-12.23
2023-12-05T13:45:21.173Z,-12.27
2023-12-05T13:47:48.456Z,-12.27
2023-12-05T13:50:15.159Z,-12.26
2023-12-05T13:52:41.791Z,-12.25
2023-12-05T13:55:08.894Z,-12.25
2023-12-05T13:57:35.552Z,-12.24
2023-12-05T14:00:02.208Z,-12.23
2023-12-05T14:02:29.359Z,-12.25
2023-12-05T14:04:56.173Z,-12.25
2023-12-05T14:07:27.188Z,-12.24
2023-12-05T14:09:54.537Z,-12.25
2023-12-05T14:12:21.182Z,-12.23
2023-12-05T14:14:47.925Z,-12.23
2023-12-05T14:17:15.676Z,-12.25
2023-12-05T14:19:42.568Z,-12.26
2023-12-05T14:22:09.325Z,-12.29
2023-12-05T14:24:36.405Z,-12.35
2023-12-05T14:27:04.158Z,-12.39
2023-12-05T14:29:30.775Z,-12.43
2023-12-05T14:31:57.448Z,-12.45
2023-12-05T14:34:24.238Z,-12.49
2023-12-05T14:36:50.930Z,-12.51
2023-12-05T14:39:18.674Z,-12.53
2023-12-05T14:41:45.683Z,-12.54
2023-12-05T14:44:13.465Z,-12.56
2023-12-05T14:46:40.087Z,-12.56
2023-12-05T14:49:06.851Z,-12.50
2023-12-05T14:51:33.785Z,-12.50
2023-12-05T14:54:00.556Z,-12.53
2023-12-05T14:56:27.144Z,-12.56
2023-12-05T14:58:53.924Z,-12.59
2023-12-05T15:01:20.792Z,-12.62
2023-12-05T15:03:47.621Z,-12.66
2023-12-05T15:06:14.560Z,-12.71
2023-12-05T15:08:41.158Z,-12.73
2023-12-05T15:11:07.805Z,-12.77
2023-12-05T15:13:34.414Z,-12.79
2023-12-05T15:16:01.139Z,-12.79
2023-12-05T15:18:28.737Z,-12.78
2023-12-05T15:20:55.473Z,-12.81
2023-12-05T15:23:22.411Z,-12.83
2023-12-05T15:25:49.052Z,-12.83
2023-12-05T15:28:17.999Z,-12.84
2023-12-05T15:30:44.768Z,-12.86
2023-12-05T15:33:14.588Z,-12.91
2023-12-05T15:35:41.944Z,-12.93
2023-12-05T15:38:08.564Z,-12.93
2023-12-05T15:40:35.186Z,-12.97
2023-12-05T15:43:01.904Z,-13.00
2023-12-05T15:45:28.578Z,-12.99
2023-12-05T15:47:55.259Z,-13.00
2023-12-05T15:50:22.073Z,-13.00
2023-12-05T15:52:48.890Z,-13.02
2023-12-05T15:55:15.688Z,-13.01
2023-12-05T15:57:45.825Z,-13.02
2023-12-05T16:00:13.483Z,-13.02
2023-12-05T16:02:42.245Z,-13.02
2023-12-05T16:05:09.383Z,-13.04
2023-12-05T16:07:36.020Z,-13.08
2023-12-05T16:10:02.964Z,-13.10
2023-12-05T16:12:29.843Z,-13.13
2023-12-05T16:14:56.495Z,-13.14
2023-12-05T16:17:23.827Z,-13.17
2023-12-05T16:19:50.528Z,-13.18
2023-12-05T16:22:17.268Z,-13.22
2023-12-05T16:24:44.291Z,-13.23
2023-12-05T16:27:11.019Z,-13.25
2023-12-05T16:29:37.665Z,-13.28
2023-12-05T16:32:05.448Z,-13.33
2023-12-05T16:34:32.181Z,-13.33
2023-12-05T16:36:58.944Z,-13.37
2023-12-05T16:39:25.567Z,-13.38
2023-12-05T16:41:52.287Z,-13.40
2023-12-05T16:44:20.735Z,-13.41
2023-12-05T16:46:47.436Z,-13.45
2023-12-05T16:49:14.179Z,-13.46
2023-12-05T16:51:41.596Z,-13.47
2023-12-05T16:54:08.223Z,-13.50
2023-12-05T16:56:34.850Z,-13.52
2023-12-05T16:59:02.095Z,-13.53
2023-12-05T17:01:28.967Z,-13.53
2023-12-05T17:03:55.984Z,-13.54
2023-12-05T17:06:22.716Z,-13.54
2023-12-05T17:08:49.312Z,-13.56
2023-12-05T17:11:15.939Z,-13.62
2023-12-05T17:13:43.336Z,-13.64
2023-12-05T17:16:10.148Z,-13.65
2023-12-05T17:18:37.284Z,-13.66
2023-12-05T17:21:04.440Z,-13.66
2023-12-05T17:23:32.243Z,-13.66
2023-12-05T17:25:59.813Z,-13.66
2023-12-05T17:28:26.430Z,-13.67
2023-12-05T17:30:53.163Z,-13.66
2023-12-05T17:33:19.875Z,-13.67
2023-12-05T17:35:47.026Z,-13.67
2023-12-05T17:38:15.802Z,-13.71
2023-12-05T17:40:43.041Z,-13.71
2023-12-05T17:43:09.785Z,-13.75
2023-12-05T17:45:36.543Z,-13.75
2023-12-05T17:48:03.239Z,-13.76
2023-12-05T17:50:29.954Z,-13.80
2023-12-05T17:52:56.817Z,-13.81
2023-12-05T17:55:23.504Z,-13.85
2023-12-05T17:57:50.435Z,-13.92
2023-12-05T18:00:17.657Z,-14.00
2023-12-05T18:02:44.559Z,-14.03
2023-12-05T18:05:11.229Z,-14.03
2023-12-05T18:07:53.910Z,-14.05
2023-12-05T18:10:24.637Z,-14.08
2023-12-05T18:12:51.323Z,-14.10
2023-12-05T18:15:18.003Z,-14.09
2023-12-05T18:17:44.732Z,-14.11
2023-12-05T18:20:11.870Z,-14.14
2023-12-05T18:22:38.529Z,-14.16
2023-12-05T18:25:07.453Z,-14.17
2023-12-05T18:27:34.647Z,-14.19
2023-12-05T18:30:01.487Z,-14.21
2023-12-05T18:32:28.784Z,-14.24
2023-12-05T18:34:55.949Z,-14.26
2023-12-05T18:37:23.497Z,-14.30
2023-12-05T18:39:50.578Z,-14.29
2023-12-05T18:42:17.382Z,-14.31
2023-12-05T18:44:44.462Z,-14.31
2023-12-05T18:47:11.064Z,-14.32
2023-12-05T18:49:37.876Z,-14.36
2023-12-05T18:52:05.090Z,-14.37
2023-12-05T18:54:31.809Z,-14.35
2023-12-05T18:56:58.648Z,-14.33
2023-12-05T18:59:25.230Z,-14.34
2023-12-05T19:01:52.232Z,-14.30
2023-12-05T19:04:19.045Z,-14.28
2023-12-05T19:06:45.808Z,-14.29
2023-12-05T19:09:13.644Z,-14.29
2023-12-05T19:11:40.275Z,-14.30
2023-12-05T19:14:07.316Z,-14.30
2023-12-05T19:16:35.449Z,-14.35
2023-12-05T19:19:02.970Z,-14.35
2023-12-05T19:21:30.920Z,-14.36
2023-12-05T19:23:59.938Z,-14.34
2023-12-05T19:26:27.975Z,-14.35
2023-12-05T19:28:57.744Z,-14.35
2023-12-05T19:31:24.940Z,-14.37
2023-12-05T19:33:51.718Z,-14.37
2023-12-05T19:36:18.423Z,-14.39
2023-12-05T19:38:45.065Z,-14.40
2023-12-05T19:41:11.697Z,-14.39
2023-12-05T19:43:38.387Z,-14.39
2023-12-05T19:46:05.318Z,-14.36
2023-12-05T19:48:33.268Z,-14.35
2023-12-05T19:51:00.498Z,-14.30
2023-12-05T19:53:28.194Z,-14.26
2023-12-05T19:55:56.143Z,-14.23
2023-12-05T19:58:22.995Z,-14.20
2023-12-05T20:00:49.779Z,-14.17
2023-12-05T20:03:19.745Z,-14.16
2023-12-05T20:05:48.921Z,-14.11
2023-12-05T20:08:16.939Z,-14.06
2023-12-05T20:10:44.393Z,-14.02
2023-12-05T20:13:11.289Z,-14.00
2023-12-05T20:15:38.991Z,-13.97
2023-12-05T20:18:05.951Z,-13.95
2023-12-05T20:20:32.839Z,-13.92
2023-12-05T20:23:00.384Z,-13.90
2023-12-05T20:25:27.158Z,-13.84
2023-12-05T20:27:53.976Z,-13.82
2023-12-05T20:30:20.847Z,-13.79
2023-12-05T20:32:47.748Z,-13.77
2023-12-05T20:35:14.432Z,-13.76
2023-12-05T20:37:42.410Z,-13.74
2023-12-05T20:40:09.817Z,-13.69
2023-12-05T20:42:37.072Z,-13.67
2023-12-05T20:45:04.890Z,-13.63
2023-12-05T20:47:31.800Z,-13.60
2023-12-05T20:49:58.454Z,-13.59
2023-12-05T20:52:25.597Z,-13.57
2023-12-05T20:54:52.389Z,-13.53
2023-12-05T20:57:19.281Z,-13.49
2023-12-05T20:59:46.386Z,-13.45
2023-12-05T21:02:12.984Z,-13.41
2023-12-05T21:04:39.820Z,-13.38
2023-12-05T21:07:06.652Z,-13.34
2023-12-05T21:09:33.396Z,-13.31
2023-12-05T21:12:00.300Z,-13.29
2023-12-05T21:14:27.105Z,-13.26
2023-12-05T21:16:54.619Z,-13.21
2023-12-05T21:19:21.391Z,-13.18
2023-12-05T21:21:48.147Z,-13.13
2023-12-05T21:24:14.872Z,-13.12
2023-12-05T21:26:41.660Z,-13.09
2023-12-05T21:29:08.427Z,-13.06
2023-12-05T21:31:35.081Z,-13.04
2023-12-05T21:34:01.954Z,-13.01
2023-12-05T21:36:28.691Z,-13.03
2023-12-05T21:38:58.699Z,-13.00
2023-12-05T21:41:26.502Z,-12.99
2023-12-05T21:43:53.152Z,-12.98
2023-12-05T21:46:29.854Z,-12.94
2023-12-05T21:48:57.604Z,-12.92
2023-12-05T21:51:24.490Z,-12.87
2023-12-05T21:53:51.802Z,-12.85
2023-12-05T21:56:18.847Z,-12.82
2023-12-05T21:58:45.562Z,-12.80
2023-12-05T22:01:13.522Z,-12.76
2023-12-05T22:03:40.972Z,-12.74
2023-12-05T22:06:08.691Z,-12.72
2023-12-05T22:08:35.350Z,-12.70
2023-12-05T22:11:03.471Z,-12.68
2023-12-05T22:13:33.484Z,-12.69
2023-12-05T22:16:01.674Z,-12.69
2023-12-05T22:18:29.734Z,-12.68
2023-12-05T22:20:57.490Z,-12.69
2023-12-05T22:23:25.691Z,-12.67
2023-12-05T22:25:53.226Z,-12.68
2023-12-05T22:28:19.917Z,-12.68
2023-12-05T22:30:46.561Z,-12.69
2023-12-05T22:33:14.168Z,-12.69
2023-12-05T22:35:43.139Z,-12.71
2023-12-05T22:38:09.765Z,-12.67
2023-12-05T22:40:36.595Z,-12.65
2023-12-05T22:43:03.508Z,-12.63
2023-12-05T22:45:30.186Z,-12.61
2023-12-05T22:47:56.845Z,-12.61
2023-12-05T22:50:23.642Z,-12.58
2023-12-05T22:52:54.159Z,-12.55
2023-12-05T22:55:21.657Z,-12.53
2023-12-05T22:57:50.399Z,-12.53
2023-12-05T23:00:25.349Z,-12.50
2023-12-05T23:02:57.185Z,-12.47
2023-12-05T23:05:24.423Z,-12.46
2023-12-05T23:07:52.068Z,-12.46
2023-12-05T23:10:19.504Z,-12.46
2023-12-05T23:12:46.337Z,-12.44
2023-12-05T23:15:13.251Z,-12.42
2023-12-05T23:17:40.520Z,-12.39
2023-12-05T23:20:08.362Z,-12.37
2023-12-05T23:22:35.103Z,-12.37
2023-12-05T23:25:02.024Z,-12.38
2023-12-05T23:27:29.065Z,-12.39
2023-12-05T23:29:55.792Z,-12.39
2023-12-05T23:32:22.659Z,-12.36
2023-12-05T23:34:49.367Z,-12.34
2023-12-05T23:37:16.302Z,-12.30
2023-12-05T23:39:43.065Z,-12.27
2023-12-05T23:42:09.816Z,-12.22
2023-12-05T23:44:36.463Z,-12.21
2023-12-05T23:47:03.371Z,-12.16
2023-12-05T23:49:30.224Z,-12.13
2023-12-05T23:51:56.980Z,-12.10
2023-12-05T23:54:23.595Z,-12.08
2023-12-05T23:56:50.593Z,-12.07
2023-12-05T23:59:17.240Z,-12.04
